Time;durP1;ratioP1;P1;durP2;ratioP2;P2;SDS_P1;SDS_P2;PMS_P1;PMS_P2;Temp;Humidity;BMP_temperature;BMP_pressure;BME280_temperature;BME280_humidity;BME280_pressure;Samples;Min_cycle;Max_cycle;Signal;HPM_P1;HPM_P2
2022/01/22 05:00:59;;;;;;;54.13;19.40;;;2.50;99.90;;;;;;5705074;23;21007;-78
2022/01/22 05:03:26;;;;;;;39.73;21.47;;;2.50;99.90;;;;;;4953261;29;20492;-78
2022/01/22 05:05:53;;;;;;;46.73;18.70;;;2.60;99.90;;;;;;4953614;29;20449;-78
2022/01/22 05:08:20;;;;;;;35.63;17.77;;;2.60;99.90;;;;;;4953380;29;20456;-78
2022/01/22 05:10:48;;;;;;;37.97;19.03;;;2.60;99.90;;;;;;4953044;28;20532;-79
2022/01/22 05:15:43;;;;;;;45.00;18.97;;;2.70;99.90;;;;;;4971039;28;20479;-75
2022/01/22 05:18:11;;;;;;;42.87;19.93;;;2.70;99.90;;;;;;4972062;28;21006;-75
2022/01/22 05:20:46;;;;;;;38.20;19.40;;;2.70;99.90;;;;;;4972246;28;20494;-75
2022/01/22 05:23:16;;;;;;;46.50;20.10;;;2.70;99.90;;;;;;4972196;28;20855;-75
2022/01/22 05:25:48;;;;;;;30.07;18.03;;;2.70;99.90;;;;;;4953249;29;20937;-75
2022/01/22 05:28:47;;;;;;;39.67;20.17;;;2.60;99.90;;;;;;4953916;28;20467;-75
2022/01/22 05:31:23;;;;;;;38.80;19.40;;;2.60;99.90;;;;;;4956254;29;20460;-75
2022/01/22 05:39:17;;;;;;;42.60;17.67;;;2.60;99.90;;;;;;4956254;29;20440;-75
2022/01/22 05:41:44;;;;;;;42.47;16.93;;;2.50;99.90;;;;;;4956330;29;20449;-75
2022/01/22 05:44:11;;;;;;;39.10;18.80;;;2.60;99.90;;;;;;4955950;29;20583;-75
2022/01/22 05:46:38;;;;;;;39.70;19.13;;;2.60;99.90;;;;;;4956463;29;20539;-75
2022/01/22 05:49:06;;;;;;;40.80;20.13;;;2.50;99.90;;;;;;4956506;29;20539;-75
2022/01/22 05:51:35;;;;;;;37.27;18.87;;;2.60;99.90;;;;;;4956500;29;20457;-75
2022/01/22 05:54:15;;;;;;;45.43;19.83;;;2.50;99.90;;;;;;4956331;29;20480;-75
2022/01/22 05:59:39;;;;;;;38.23;18.30;;;2.50;99.90;;;;;;4956098;29;20440;-75
2022/01/22 06:02:07;;;;;;;36.37;20.17;;;2.50;99.90;;;;;;4956119;29;20460;-75
2022/01/22 06:04:36;;;;;;;38.70;19.53;;;2.50;99.90;;;;;;4955780;29;20500;-75
2022/01/22 06:07:05;;;;;;;47.73;21.27;;;2.60;99.90;;;;;;4955818;29;20540;-75
2022/01/22 06:09:33;;;;;;;39.27;19.70;;;2.60;99.90;;;;;;4955805;29;20540;-75
2022/01/22 06:12:15;;;;;;;36.43;18.97;;;2.60;99.90;;;;;;4955667;29;20460;-75
2022/01/22 06:14:42;;;;;;;38.83;20.30;;;2.60;99.90;;;;;;4955708;29;20975;-75
2022/01/22 06:17:09;;;;;;;39.53;19.60;;;2.60;99.90;;;;;;4956199;29;20457;-75
2022/01/22 06:19:38;;;;;;;36.40;19.60;;;2.50;99.90;;;;;;4955454;29;20453;-75
2022/01/22 06:22:04;;;;;;;37.73;18.60;;;2.60;99.90;;;;;;4955694;29;20957;-75
2022/01/22 06:24:31;;;;;;;44.40;20.80;;;2.60;99.90;;;;;;4955415;29;20493;-75
2022/01/22 06:26:58;;;;;;;41.03;18.87;;;2.60;99.90;;;;;;4955555;29;20453;-75
2022/01/22 06:29:25;;;;;;;37.83;19.03;;;2.60;99.90;;;;;;4955338;29;20544;-75
2022/01/22 06:31:52;;;;;;;32.07;18.30;;;2.60;99.90;;;;;;4955282;29;20540;-75
2022/01/22 06:34:19;;;;;;;43.03;18.93;;;2.60;99.90;;;;;;4955471;29;20473;-75
2022/01/22 06:36:47;;;;;;;43.83;21.17;;;2.60;99.90;;;;;;4955576;29;20548;-75
2022/01/22 06:39:16;;;;;;;43.93;19.07;;;2.60;99.90;;;;;;4954860;28;20544;-75
2022/01/22 06:41:46;;;;;;;38.40;19.30;;;2.60;99.90;;;;;;4954603;29;20967;-75
2022/01/22 06:44:14;;;;;;;39.07;19.70;;;2.70;99.90;;;;;;4955161;29;20528;-75
2022/01/22 06:46:42;;;;;;;43.77;21.30;;;2.60;99.90;;;;;;4954946;29;20457;-75
2022/01/22 06:49:09;;;;;;;38.40;19.27;;;2.70;99.90;;;;;;4955107;29;20457;-75
2022/01/22 06:51:36;;;;;;;34.77;19.30;;;2.60;99.90;;;;;;4955102;29;20449;-75
2022/01/22 06:54:06;;;;;;;39.73;22.50;;;2.70;99.90;;;;;;4955002;29;20508;-75
2022/01/22 06:56:33;;;;;;;41.57;20.00;;;2.70;99.90;;;;;;4954869;29;20996;-75
2022/01/22 06:59:02;;;;;;;36.63;19.10;;;2.70;99.90;;;;;;4954485;29;20842;-75
2022/01/22 07:01:30;;;;;;;40.30;20.63;;;2.70;99.90;;;;;;4955228;29;20469;-75
2022/01/22 07:03:57;;;;;;;35.07;18.63;;;2.70;99.90;;;;;;4954601;29;20587;-75
2022/01/22 07:06:24;;;;;;;37.33;18.47;;;2.70;99.90;;;;;;4954874;29;20480;-75
2022/01/22 07:08:51;;;;;;;39.27;19.27;;;2.80;99.90;;;;;;4954948;29;20459;-75
2022/01/22 07:11:20;;;;;;;35.13;19.60;;;2.80;99.90;;;;;;4954772;29;20484;-74
2022/01/22 07:13:47;;;;;;;39.27;19.27;;;2.80;99.90;;;;;;4954632;29;20564;-75
2022/01/22 07:16:14;;;;;;;39.47;19.03;;;2.80;99.90;;;;;;4954598;29;20540;-75
2022/01/22 07:18:42;;;;;;;35.93;19.40;;;2.80;99.90;;;;;;4954764;29;20476;-76
2022/01/22 07:21:15;;;;;;;33.97;19.27;;;2.70;99.90;;;;;;4954489;29;20948;-75
2022/01/22 07:26:36;;;;;;;45.13;20.37;;;2.70;99.90;;;;;;4919561;29;20495;-75
2022/01/22 07:29:03;;;;;;;39.20;21.17;;;2.60;99.90;;;;;;4954382;29;21221;-74
2022/01/22 07:31:30;;;;;;;39.67;19.30;;;2.60;99.90;;;;;;4954573;29;20536;-75
2022/01/22 07:33:57;;;;;;;36.40;20.67;;;2.60;99.90;;;;;;4954458;29;20507;-75
2022/01/22 07:36:24;;;;;;;37.20;18.50;;;2.60;99.90;;;;;;4954418;29;21032;-75
2022/01/22 07:38:51;;;;;;;42.47;19.97;;;2.60;99.90;;;;;;4953934;29;20563;-75
2022/01/22 07:41:18;;;;;;;43.63;20.70;;;2.60;99.90;;;;;;4954496;29;20456;-75
2022/01/22 07:43:48;;;;;;;44.20;21.33;;;2.60;99.90;;;;;;4954203;29;20919;-75
2022/01/22 07:46:14;;;;;;;41.57;19.17;;;2.70;99.90;;;;;;4954346;29;21064;-75
2022/01/22 07:48:41;;;;;;;37.43;20.57;;;2.60;99.90;;;;;;4954143;29;20543;-75
2022/01/22 07:51:08;;;;;;;43.20;20.87;;;2.60;99.90;;;;;;4953715;28;20457;-75
2022/01/22 07:53:35;;;;;;;43.73;20.93;;;2.60;99.90;;;;;;4954081;29;20512;-75
2022/01/22 07:56:02;;;;;;;42.60;20.93;;;2.60;99.90;;;;;;4954139;29;20484;-75
2022/01/22 07:58:29;;;;;;;44.90;20.90;;;2.60;99.90;;;;;;4954010;29;20457;-75
2022/01/22 08:00:57;;;;;;;42.27;21.00;;;2.60;99.90;;;;;;4953634;29;20459;-74
2022/01/22 08:03:27;;;;;;;44.10;21.87;;;2.60;99.90;;;;;;4953642;29;20537;-75
2022/01/22 08:05:53;;;;;;;40.03;20.03;;;2.70;99.90;;;;;;4953747;29;21068;-75
2022/01/22 08:08:20;;;;;;;39.17;20.77;;;2.60;99.90;;;;;;4954192;29;20504;-75
2022/01/22 08:10:47;;;;;;;50.50;19.70;;;2.60;99.90;;;;;;4953796;29;20544;-75
2022/01/22 08:13:17;;;;;;;54.47;21.50;;;2.60;99.90;;;;;;4953847;29;20540;-75
2022/01/22 08:15:44;;;;;;;46.77;20.20;;;2.70;99.90;;;;;;4953888;29;20536;-75
2022/01/22 08:18:12;;;;;;;37.47;21.37;;;2.70;99.90;;;;;;4953058;29;20487;-75
2022/01/22 08:20:39;;;;;;;40.37;20.00;;;2.70;99.90;;;;;;4950767;29;20496;-75
2022/01/22 08:23:06;;;;;;;41.67;21.30;;;2.70;99.90;;;;;;4954125;29;20492;-75
2022/01/22 08:25:33;;;;;;;45.57;21.10;;;2.70;99.90;;;;;;4953669;29;20585;-75
2022/01/22 08:30:46;;;;;;;43.83;20.93;;;2.80;99.90;;;;;;4951355;29;20452;-75
2022/01/22 08:35:51;;;;;;;40.40;20.00;;;2.80;99.90;;;;;;4953655;29;20461;-76
2022/01/22 08:36:17;;;;;;;36.13;19.80;;;2.80;99.90;;;;;;4950579;29;20444;-77
2022/01/22 08:38:44;;;;;;;46.30;22.03;;;2.80;99.90;;;;;;4953541;29;20448;-77
2022/01/22 08:41:11;;;;;;;43.87;20.77;;;2.80;99.90;;;;;;4953537;29;20464;-77
2022/01/22 08:43:38;;;;;;;41.83;20.30;;;2.80;99.90;;;;;;4953641;29;20563;-78
2022/01/22 08:46:05;;;;;;;46.90;21.77;;;2.90;99.90;;;;;;4953816;29;20537;-77
2022/01/22 08:48:34;;;;;;;45.70;23.57;;;2.90;99.90;;;;;;4953301;29;20453;-77
2022/01/22 08:51:01;;;;;;;49.53;19.30;;;3.00;99.90;;;;;;4948190;29;21020;-78
2022/01/22 08:53:28;;;;;;;38.93;19.97;;;3.00;99.90;;;;;;4953570;29;20453;-77
2022/01/22 08:55:56;;;;;;;40.43;21.17;;;3.00;99.90;;;;;;4953523;29;20450;-77
2022/01/22 08:58:23;;;;;;;39.60;20.50;;;3.00;99.90;;;;;;4953763;29;20457;-77
2022/01/22 09:00:50;;;;;;;34.63;19.40;;;3.00;99.90;;;;;;4953025;29;20532;-77
2022/01/22 09:03:19;;;;;;;33.13;20.47;;;3.00;99.90;;;;;;4954087;28;20459;-77
2022/01/22 09:05:48;;;;;;;42.83;21.37;;;3.00;99.90;;;;;;4957339;29;20858;-78
2022/01/22 09:08:16;;;;;;;34.73;19.17;;;3.00;99.90;;;;;;4957091;29;20487;-78
2022/01/22 09:10:42;;;;;;;44.20;21.30;;;2.90;99.90;;;;;;4957199;29;20464;-77
2022/01/22 09:13:10;;;;;;;36.83;19.23;;;3.00;99.90;;;;;;4957069;29;20456;-78
2022/01/22 09:15:37;;;;;;;39.97;20.60;;;2.90;99.90;;;;;;4957078;29;20491;-77
2022/01/22 09:18:05;;;;;;;39.03;19.00;;;2.90;99.90;;;;;;4956964;29;20491;-78
2022/01/22 09:20:54;;;;;;;36.50;19.60;;;3.00;99.90;;;;;;4956656;29;20460;-77
2022/01/22 09:23:23;;;;;;;47.07;21.07;;;2.90;99.90;;;;;;4956812;29;21113;-77
2022/01/22 09:25:50;;;;;;;36.10;19.93;;;2.90;99.90;;;;;;4957003;29;20587;-77
2022/01/22 09:28:17;;;;;;;40.20;20.60;;;3.00;99.90;;;;;;4956812;29;20539;-77
2022/01/22 09:30:46;;;;;;;41.23;18.47;;;3.00;99.90;;;;;;4956439;29;21034;-78
2022/01/22 09:33:13;;;;;;;38.20;20.23;;;3.00;99.90;;;;;;4956661;29;20483;-77
2022/01/22 09:35:40;;;;;;;32.40;19.40;;;3.00;99.90;;;;;;4957037;29;20918;-77
2022/01/22 09:38:07;;;;;;;40.03;20.57;;;3.10;99.90;;;;;;4956590;29;20547;-79
2022/01/22 09:40:36;;;;;;;40.60;20.10;;;3.10;99.90;;;;;;4956159;29;20933;-75
2022/01/22 09:43:09;;;;;;;33.90;18.63;;;3.10;99.90;;;;;;4956251;29;20444;-78
2022/01/22 09:45:36;;;;;;;38.87;19.30;;;3.10;99.90;;;;;;4956247;29;20984;-78
2022/01/22 09:48:03;;;;;;;37.50;19.10;;;3.00;99.90;;;;;;4956291;29;20995;-76
2022/01/22 09:50:32;;;;;;;40.83;19.77;;;3.00;99.90;;;;;;4956114;29;20457;-78
2022/01/22 09:52:59;;;;;;;38.70;19.97;;;3.00;99.90;;;;;;4937221;29;20485;-77
2022/01/22 09:55:26;;;;;;;44.67;19.53;;;3.00;99.90;;;;;;4936956;29;20501;-78
2022/01/22 09:57:56;;;;;;;39.87;20.43;;;3.10;99.90;;;;;;4937326;29;20533;-78
2022/01/22 10:00:25;;;;;;;38.60;19.27;;;3.10;99.90;;;;;;4936660;29;20462;-78
2022/01/22 10:02:53;;;;;;;35.87;19.77;;;3.10;99.90;;;;;;4937232;29;20453;-78
2022/01/22 10:05:35;;;;;;;36.63;22.03;;;3.10;99.90;;;;;;4939391;29;20522;-79
2022/01/22 10:08:21;;;;;;;41.57;21.60;;;3.10;99.90;;;;;;4949716;29;20446;-79
2022/01/22 10:10:49;;;;;;;39.57;19.90;;;3.10;99.90;;;;;;4948439;29;20454;-78
2022/01/22 10:13:38;;;;;;;40.03;18.93;;;3.00;99.90;;;;;;4948135;29;20482;-78
2022/01/22 10:16:16;;;;;;;41.10;18.80;;;3.00;99.90;;;;;;4948070;29;20521;-78
2022/01/22 10:18:44;;;;;;;44.73;20.80;;;3.10;99.90;;;;;;4949684;29;20489;-78
2022/01/22 10:21:12;;;;;;;50.87;20.57;;;3.10;99.90;;;;;;4947312;29;20473;-78
2022/01/22 10:23:41;;;;;;;48.50;20.30;;;3.10;99.90;;;;;;4951618;29;20511;-79
2022/01/22 10:26:12;;;;;;;44.90;19.97;;;3.00;99.90;;;;;;4965735;29;20508;-78
2022/01/22 10:28:45;;;;;;;43.30;21.53;;;3.00;99.90;;;;;;4963735;29;20467;-77
2022/01/22 10:31:20;;;;;;;49.87;20.93;;;3.00;99.90;;;;;;4961693;29;20552;-78
2022/01/22 10:34:05;;;;;;;49.80;21.80;;;3.10;99.90;;;;;;4965070;29;20472;-78
2022/01/22 10:36:32;;;;;;;41.67;21.23;;;3.00;99.90;;;;;;4966750;29;20472;-78
2022/01/22 10:39:00;;;;;;;41.83;21.03;;;3.00;99.90;;;;;;4966995;29;20456;-78
2022/01/22 10:41:36;;;;;;;41.30;20.10;;;3.00;99.90;;;;;;4966854;29;20459;-78
2022/01/22 10:44:07;;;;;;;49.27;21.30;;;3.00;99.90;;;;;;4966540;29;20473;-78
2022/01/22 10:46:47;;;;;;;38.33;20.77;;;3.00;99.90;;;;;;4967301;29;20493;-78
2022/01/22 10:49:16;;;;;;;41.70;20.30;;;3.00;99.90;;;;;;4966032;29;20467;-78
2022/01/22 10:51:51;;;;;;;40.97;21.03;;;3.00;99.90;;;;;;4965130;29;20456;-78
2022/01/22 10:54:21;;;;;;;42.43;20.63;;;3.00;99.90;;;;;;4963960;29;20480;-78
2022/01/22 10:56:49;;;;;;;38.80;21.30;;;3.10;99.90;;;;;;4961171;29;20564;-78
2022/01/22 10:59:18;;;;;;;40.83;21.87;;;3.10;99.90;;;;;;4961672;29;20485;-78
2022/01/22 11:01:50;;;;;;;44.67;22.80;;;3.20;99.90;;;;;;4961456;29;20476;-78
2022/01/22 11:04:19;;;;;;;47.93;21.23;;;3.20;99.90;;;;;;4960805;29;20492;-78
2022/01/22 11:06:52;;;;;;;39.23;20.73;;;3.20;99.90;;;;;;4961907;29;20500;-78
2022/01/22 11:09:20;;;;;;;37.60;20.20;;;3.20;99.90;;;;;;4961519;29;20437;-78
2022/01/22 11:11:47;;;;;;;46.20;20.10;;;3.20;99.90;;;;;;4961076;29;20483;-78
2022/01/22 11:16:49;;;;;;;40.00;19.70;;;3.30;99.90;;;;;;4971849;28;20487;-75
2022/01/22 11:19:18;;;;;;;37.03;19.40;;;3.30;99.90;;;;;;4974103;28;20908;-73
2022/01/22 11:21:47;;;;;;;40.70;19.80;;;3.30;99.90;;;;;;4975572;28;20514;-73
2022/01/22 11:24:16;;;;;;;44.40;23.00;;;3.30;99.90;;;;;;4973442;28;20491;-76
2022/01/22 11:26:46;;;;;;;53.20;21.77;;;3.30;99.90;;;;;;4973241;28;20582;-74
2022/01/22 11:29:15;;;;;;;41.27;21.60;;;3.40;99.90;;;;;;4973611;28;20452;-74
2022/01/22 11:31:46;;;;;;;35.83;19.50;;;3.50;99.90;;;;;;4973791;28;20460;-74
2022/01/22 11:34:17;;;;;;;37.73;20.57;;;3.40;99.90;;;;;;4973775;28;20532;-73
2022/01/22 11:36:52;;;;;;;49.87;20.70;;;3.40;99.90;;;;;;4973757;28;20550;-73
2022/01/22 11:39:21;;;;;;;39.60;20.00;;;3.50;99.90;;;;;;4973646;28;20462;-76
2022/01/22 11:41:53;;;;;;;32.97;18.13;;;3.50;99.90;;;;;;4973656;28;20842;-74
2022/01/22 11:44:26;;;;;;;34.70;19.20;;;3.50;99.90;;;;;;4973570;28;20474;-74
2022/01/22 11:47:09;;;;;;;32.67;18.17;;;3.50;99.90;;;;;;4955222;28;20499;-74
2022/01/22 11:49:36;;;;;;;37.53;17.10;;;3.50;99.90;;;;;;4954262;29;20487;-74
2022/01/22 11:52:23;;;;;;;34.33;17.87;;;3.50;99.90;;;;;;4965130;28;20948;-74
2022/01/22 11:54:53;;;;;;;36.43;17.60;;;3.50;99.90;;;;;;4973426;28;20479;-73
2022/01/22 11:57:21;;;;;;;33.27;16.70;;;3.50;99.90;;;;;;4973922;28;20591;-74
2022/01/22 11:59:48;;;;;;;31.23;17.40;;;3.50;99.90;;;;;;4973353;28;20546;-74
2022/01/22 12:02:17;;;;;;;30.43;16.10;;;3.60;99.90;;;;;;4968817;28;20997;-74
2022/01/22 12:04:50;;;;;;;32.53;15.67;;;3.60;99.90;;;;;;4954870;28;20509;-73
2022/01/22 12:07:27;;;;;;;32.20;16.80;;;3.60;99.90;;;;;;4972996;28;21184;-73
2022/01/22 12:10:32;;;;;;;26.00;16.10;;;3.70;99.90;;;;;;4970011;28;20832;-75
2022/01/22 12:16:08;;;;;;;36.27;18.27;;;3.70;99.90;;;;;;4973192;28;20555;-75
2022/01/22 12:18:41;;;;;;;27.40;16.23;;;3.60;99.90;;;;;;4973177;28;20547;-75
2022/01/22 12:21:32;;;;;;;29.50;17.47;;;3.70;99.90;;;;;;4973343;28;20451;-75
2022/01/22 12:24:00;;;;;;;35.40;16.17;;;3.70;99.90;;;;;;4973026;28;20539;-75
2022/01/22 12:26:55;;;;;;;34.17;18.27;;;3.70;99.90;;;;;;4973124;28;20503;-74
2022/01/22 12:29:42;;;;;;;33.20;18.10;;;3.70;99.90;;;;;;4972912;28;20550;-75
2022/01/22 12:32:16;;;;;;;27.80;16.40;;;3.70;99.90;;;;;;4972829;28;20466;-75
2022/01/22 12:34:59;;;;;;;31.87;16.03;;;3.70;99.90;;;;;;4972052;28;20479;-74
2022/01/22 12:37:29;;;;;;;27.30;15.60;;;3.70;99.90;;;;;;4972184;28;20463;-75
2022/01/22 12:39:57;;;;;;;29.40;15.60;;;3.80;99.90;;;;;;4960393;28;20537;-75
2022/01/22 12:42:47;;;;;;;30.40;16.00;;;3.80;99.90;;;;;;4975817;28;20490;-75
2022/01/22 12:45:14;;;;;;;30.10;14.60;;;3.80;99.90;;;;;;4975796;28;20510;-75
2022/01/22 12:47:46;;;;;;;29.50;15.77;;;3.90;99.90;;;;;;4975508;28;20492;-75
2022/01/22 12:50:15;;;;;;;31.47;14.43;;;3.80;99.90;;;;;;4975479;28;20562;-75
2022/01/22 12:52:46;;;;;;;26.63;14.17;;;3.90;99.90;;;;;;4975849;28;20491;-75
2022/01/22 12:55:18;;;;;;;30.90;15.50;;;3.90;99.90;;;;;;4975360;28;20487;-75
2022/01/22 12:57:45;;;;;;;32.13;15.70;;;3.90;99.90;;;;;;4975743;28;20444;-75
2022/01/22 13:00:17;;;;;;;24.10;14.97;;;3.90;99.90;;;;;;4975052;28;20542;-75
2022/01/22 13:02:46;;;;;;;28.63;15.70;;;3.90;99.90;;;;;;4974742;28;20460;-66
2022/01/22 13:05:17;;;;;;;26.47;14.67;;;3.90;99.90;;;;;;4975339;28;20566;-66
2022/01/22 13:07:51;;;;;;;26.20;14.73;;;3.90;99.90;;;;;;4975271;28;20491;-66
2022/01/22 13:10:18;;;;;;;31.13;15.50;;;4.00;99.90;;;;;;4975281;28;20514;-66
2022/01/22 13:12:47;;;;;;;37.30;14.60;;;4.00;99.90;;;;;;4975473;28;20460;-66
2022/01/22 13:15:16;;;;;;;30.27;16.60;;;4.00;99.90;;;;;;4973308;28;20480;-74
2022/01/22 13:17:51;;;;;;;32.00;20.70;;;4.00;99.90;;;;;;4976074;28;20488;-75
2022/01/22 13:20:23;;;;;;;30.40;15.57;;;4.10;99.90;;;;;;4975904;28;20473;-75
2022/01/22 13:22:51;;;;;;;29.90;14.23;;;4.10;99.90;;;;;;4976263;28;20542;-75
2022/01/22 13:25:19;;;;;;;31.97;17.80;;;4.10;99.90;;;;;;4976262;28;20913;-75
2022/01/22 13:28:00;;;;;;;33.63;20.20;;;4.10;99.90;;;;;;4976043;28;20583;-74
2022/01/22 13:30:31;;;;;;;33.93;16.67;;;4.10;99.90;;;;;;4975814;28;20990;-75
2022/01/22 13:33:02;;;;;;;29.93;15.77;;;4.10;99.90;;;;;;4975962;28;21255;-75
2022/01/22 13:35:46;;;;;;;37.30;22.57;;;4.10;99.90;;;;;;4976055;28;20488;-75
2022/01/22 13:38:43;;;;;;;32.57;15.33;;;4.10;99.90;;;;;;4975735;28;20951;-75
2022/01/22 13:49:36;;;;;;;35.33;18.30;;;4.00;99.90;;;;;;4959354;28;20452;-75
2022/01/22 13:52:07;;;;;;;29.40;17.90;;;4.00;99.90;;;;;;4975664;28;20487;-74
2022/01/22 13:54:37;;;;;;;26.23;17.10;;;4.00;99.90;;;;;;4967855;28;20503;-74
2022/01/22 13:57:07;;;;;;;23.70;14.60;;;4.10;99.90;;;;;;4956200;29;20532;-74
2022/01/22 13:59:37;;;;;;;38.33;24.03;;;4.00;99.90;;;;;;4956004;28;20884;-74
2022/01/22 14:02:14;;;;;;;26.00;14.70;;;4.10;99.90;;;;;;4956014;28;20977;-74
2022/01/22 14:04:45;;;;;;;27.70;15.50;;;4.10;99.90;;;;;;4964534;28;20542;-75
2022/01/22 14:07:34;;;;;;;27.57;13.63;;;4.10;99.90;;;;;;4975417;28;20587;-75
2022/01/22 14:10:04;;;;;;;30.13;15.07;;;4.10;99.90;;;;;;4974782;28;20448;-74
2022/01/22 14:12:37;;;;;;;24.97;14.90;;;4.20;99.90;;;;;;4974764;28;20451;-75
2022/01/22 14:15:10;;;;;;;27.63;15.30;;;4.10;99.90;;;;;;4974961;28;20558;-69
2022/01/22 14:17:53;;;;;;;29.10;15.27;;;4.10;99.90;;;;;;4975258;28;20467;-68
2022/01/22 14:20:24;;;;;;;29.77;15.60;;;4.10;99.90;;;;;;4965972;28;20495;-69
2022/01/22 14:23:01;;;;;;;27.83;14.60;;;4.10;99.90;;;;;;4964651;28;20441;-73
2022/01/22 14:25:28;;;;;;;30.97;15.13;;;4.10;99.90;;;;;;4966956;28;20472;-72
2022/01/22 14:28:04;;;;;;;29.73;16.43;;;4.20;99.90;;;;;;4966016;28;20487;-73
2022/01/22 14:30:37;;;;;;;26.53;15.30;;;4.20;99.90;;;;;;4965685;28;20448;-73
2022/01/22 14:33:05;;;;;;;33.30;15.50;;;4.20;99.90;;;;;;4969433;28;20473;-73
2022/01/22 14:35:32;;;;;;;35.07;18.37;;;4.20;99.90;;;;;;4955349;29;20560;-74
2022/01/22 14:38:23;;;;;;;25.87;16.53;;;4.20;99.90;;;;;;4955788;28;20449;-74
2022/01/22 14:46:43;;;;;;;30.97;18.37;;;4.20;99.90;;;;;;4972548;28;20970;-74
2022/01/22 14:49:10;;;;;;;27.23;15.27;;;4.20;99.90;;;;;;4964045;28;20477;-74
2022/01/22 14:51:37;;;;;;;25.93;17.80;;;4.30;99.90;;;;;;4969394;28;20543;-74
2022/01/22 14:54:05;;;;;;;29.80;16.93;;;4.20;99.90;;;;;;4973907;28;20483;-74
2022/01/22 14:56:32;;;;;;;31.67;19.40;;;4.20;99.90;;;;;;4973414;28;20503;-74
2022/01/22 14:58:59;;;;;;;32.90;19.03;;;4.20;99.90;;;;;;4974236;28;20484;-75
2022/01/22 15:01:26;;;;;;;26.10;16.83;;;4.30;99.90;;;;;;4973410;28;20488;-74
2022/01/22 15:03:53;;;;;;;32.70;20.50;;;4.30;99.90;;;;;;4974422;28;21050;-74
2022/01/22 15:06:20;;;;;;;23.40;15.00;;;4.30;99.90;;;;;;4974144;28;20586;-74
2022/01/22 15:08:47;;;;;;;28.80;14.87;;;4.30;99.90;;;;;;4974171;28;20547;-74
2022/01/22 15:11:15;;;;;;;28.47;17.90;;;4.40;99.90;;;;;;4974397;28;20479;-74
2022/01/22 15:13:42;;;;;;;23.33;13.90;;;4.40;99.90;;;;;;4972816;28;20772;-74
2022/01/22 15:16:11;;;;;;;22.60;14.97;;;4.40;99.90;;;;;;4969615;28;20507;-73
2022/01/22 15:18:52;;;;;;;25.13;15.07;;;4.40;99.90;;;;;;4958267;28;20445;-72
2022/01/22 15:21:19;;;;;;;29.70;15.30;;;4.40;99.90;;;;;;4953599;29;20512;-72
2022/01/22 15:23:46;;;;;;;31.10;16.00;;;4.40;99.90;;;;;;4954047;28;20485;-73
2022/01/22 15:26:15;;;;;;;23.00;14.67;;;4.40;99.90;;;;;;4953386;29;20573;-74
2022/01/22 15:28:46;;;;;;;31.73;17.03;;;4.40;99.90;;;;;;4953496;29;21224;-73
2022/01/22 15:31:35;;;;;;;26.37;16.80;;;4.40;99.90;;;;;;4953446;28;20520;-74
2022/01/22 15:34:25;;;;;;;38.20;18.87;;;4.40;99.90;;;;;;4953346;29;20503;-74
2022/01/22 15:36:52;;;;;;;40.33;21.67;;;4.30;99.90;;;;;;4953366;29;20927;-74
2022/01/22 15:39:20;;;;;;;31.13;18.10;;;4.40;99.90;;;;;;4953096;29;20488;-75
2022/01/22 15:41:49;;;;;;;32.57;15.77;;;4.40;99.90;;;;;;4953955;29;20488;-69
2022/01/22 15:44:16;;;;;;;34.53;17.70;;;4.40;99.90;;;;;;4954397;29;20477;-74
2022/01/22 15:46:48;;;;;;;33.93;16.40;;;4.40;99.90;;;;;;4954321;29;20579;-75
2022/01/22 15:49:18;;;;;;;34.70;16.90;;;4.40;99.90;;;;;;4954161;29;21053;-75
2022/01/22 15:51:47;;;;;;;38.27;17.00;;;4.40;99.90;;;;;;4954716;29;20468;-75
2022/01/22 15:54:15;;;;;;;29.60;17.77;;;4.40;99.90;;;;;;4953598;28;20825;-76
2022/01/22 15:56:43;;;;;;;31.40;16.50;;;4.40;99.90;;;;;;4954103;28;20543;-76
2022/01/22 15:59:14;;;;;;;42.03;17.80;;;4.40;99.90;;;;;;4953838;29;20465;-78
2022/01/22 16:01:43;;;;;;;32.13;18.10;;;4.30;99.90;;;;;;4956662;28;20499;-75
2022/01/22 16:04:10;;;;;;;40.57;17.27;;;4.30;99.90;;;;;;4961548;28;20833;-76
2022/01/22 16:06:44;;;;;;;31.90;17.93;;;4.30;99.90;;;;;;4954039;29;20460;-75
2022/01/22 16:09:18;;;;;;;32.53;17.67;;;4.30;99.90;;;;;;4953726;28;20504;-75
2022/01/22 16:11:46;;;;;;;43.20;18.90;;;4.40;99.90;;;;;;4954241;28;20463;-75
2022/01/22 16:14:15;;;;;;;32.60;17.23;;;4.30;99.90;;;;;;4953976;29;20548;-74
2022/01/22 16:16:44;;;;;;;33.10;19.73;;;4.30;99.90;;;;;;4953727;29;20524;-75
2022/01/22 16:19:12;;;;;;;34.40;17.40;;;4.30;99.90;;;;;;4953760;29;20488;-75
2022/01/22 16:21:41;;;;;;;31.50;17.73;;;4.40;99.90;;;;;;4953868;29;20536;-75
2022/01/22 16:24:09;;;;;;;34.00;17.63;;;4.40;99.90;;;;;;4954183;28;20493;-75
2022/01/22 16:26:36;;;;;;;29.60;16.67;;;4.40;99.90;;;;;;4953840;28;20627;-75
2022/01/22 16:29:04;;;;;;;30.77;17.07;;;4.40;99.90;;;;;;4953560;29;20495;-74
2022/01/22 16:31:34;;;;;;;36.50;16.80;;;4.40;99.90;;;;;;4954000;29;20492;-74
2022/01/22 16:34:03;;;;;;;27.10;15.40;;;4.30;99.90;;;;;;4953865;29;20547;-75
2022/01/22 16:36:30;;;;;;;31.57;17.30;;;4.20;99.90;;;;;;4953724;29;21015;-76
2022/01/22 16:38:57;;;;;;;34.33;17.20;;;4.20;99.90;;;;;;4953351;29;20544;-73
2022/01/22 16:41:25;;;;;;;30.23;17.90;;;4.20;99.90;;;;;;4953756;28;20462;-73
2022/01/22 16:43:58;;;;;;;35.07;23.97;;;4.20;99.90;;;;;;4953584;29;20488;-73
2022/01/22 16:46:31;;;;;;;33.67;17.73;;;4.20;99.90;;;;;;4953462;28;20604;-73
2022/01/22 16:51:56;;;;;;;35.83;19.40;;;4.20;99.90;;;;;;4953757;29;20431;-75
2022/01/22 16:57:22;;;;;;;31.03;19.00;;;4.10;99.90;;;;;;4953651;29;20799;-74
2022/01/22 16:59:54;;;;;;;44.97;19.30;;;4.10;99.90;;;;;;4953371;29;20458;-74
2022/01/22 17:02:22;;;;;;;39.07;18.03;;;4.10;99.90;;;;;;4953726;29;20544;-74
2022/01/22 17:04:53;;;;;;;39.47;18.70;;;4.10;99.90;;;;;;4953606;29;20969;-74
2022/01/22 17:07:32;;;;;;;31.43;18.00;;;4.10;99.90;;;;;;4953299;29;20496;-75
2022/01/22 17:10:16;;;;;;;36.83;18.40;;;4.10;99.90;;;;;;4953784;29;20445;-75
2022/01/22 17:15:28;;;;;;;37.50;18.83;;;4.10;99.90;;;;;;4976662;23;21026;-77
2022/01/22 17:17:55;;;;;;;37.03;19.10;;;4.00;99.90;;;;;;4953830;29;20531;-77
2022/01/22 17:20:24;;;;;;;38.90;19.70;;;4.00;99.90;;;;;;4953560;29;20532;-77
2022/01/22 17:22:50;;;;;;;39.20;20.43;;;3.90;99.90;;;;;;4953556;29;20547;-77
2022/01/22 17:25:17;;;;;;;35.10;19.37;;;4.00;99.90;;;;;;4955515;28;20568;-76
2022/01/22 17:27:45;;;;;;;38.73;20.17;;;3.90;99.90;;;;;;4956658;29;21031;-76
2022/01/22 17:30:12;;;;;;;39.70;20.13;;;3.90;99.90;;;;;;4956612;29;20519;-76
2022/01/22 17:32:40;;;;;;;44.07;19.50;;;3.90;99.90;;;;;;4956868;29;20465;-71
2022/01/22 17:35:16;;;;;;;43.03;21.23;;;4.00;99.90;;;;;;4956463;28;20559;-74
2022/01/22 17:37:45;;;;;;;41.10;19.87;;;4.00;99.90;;;;;;4956540;29;20494;-70
2022/01/22 17:40:12;;;;;;;38.27;20.43;;;3.90;99.90;;;;;;4956604;29;20464;-70
2022/01/22 17:42:39;;;;;;;37.53;20.13;;;4.00;99.90;;;;;;4955987;29;20440;-71
2022/01/22 17:45:09;;;;;;;37.70;20.40;;;4.00;99.90;;;;;;4955927;28;20515;-71
2022/01/22 17:47:36;;;;;;;42.67;21.27;;;4.00;99.90;;;;;;4955655;29;20496;-76
2022/01/22 17:50:05;;;;;;;37.70;20.17;;;4.00;99.90;;;;;;4955484;29;20492;-76
2022/01/22 17:52:32;;;;;;;47.23;21.20;;;4.00;99.90;;;;;;4942642;29;20516;-76
2022/01/22 17:55:00;;;;;;;42.13;22.10;;;3.90;99.90;;;;;;4936149;29;20505;-77
2022/01/22 17:57:32;;;;;;;50.37;24.23;;;3.90;99.90;;;;;;4936837;29;20509;-77
2022/01/22 17:59:59;;;;;;;48.23;23.50;;;3.90;99.90;;;;;;4936497;29;20489;-77
2022/01/22 18:02:30;;;;;;;42.70;23.17;;;3.90;99.90;;;;;;4936980;29;20493;-78
2022/01/22 18:04:59;;;;;;;66.93;27.83;;;3.90;99.90;;;;;;4936078;29;20492;-75
2022/01/22 18:07:27;;;;;;;36.27;20.57;;;3.90;99.90;;;;;;4936508;29;20496;-75
2022/01/22 18:09:56;;;;;;;51.50;23.37;;;3.90;99.90;;;;;;4935928;29;20466;-75
2022/01/22 18:12:25;;;;;;;50.70;26.43;;;3.90;99.90;;;;;;4937236;29;20457;-75
2022/01/22 18:14:52;;;;;;;38.33;21.43;;;3.90;99.90;;;;;;4936457;29;20541;-75
2022/01/22 18:17:19;;;;;;;82.23;49.77;;;3.90;99.90;;;;;;4936245;29;20450;-75
2022/01/22 18:19:48;;;;;;;45.20;23.00;;;3.90;99.90;;;;;;4935688;29;20544;-75
2022/01/22 18:22:15;;;;;;;45.47;23.50;;;3.90;99.90;;;;;;4935875;29;20457;-75
2022/01/22 18:24:42;;;;;;;47.60;24.93;;;3.90;99.90;;;;;;4935569;29;21314;-76
2022/01/22 18:27:12;;;;;;;40.83;23.03;;;3.80;99.90;;;;;;4935867;29;20540;-75
2022/01/22 18:29:40;;;;;;;45.07;24.00;;;3.80;99.90;;;;;;4936013;29;20513;-77
2022/01/22 18:32:08;;;;;;;40.97;23.00;;;3.80;99.90;;;;;;4936251;29;20496;-77
2022/01/22 18:34:35;;;;;;;51.97;25.23;;;3.80;99.90;;;;;;4935989;29;20536;-75
2022/01/22 18:37:04;;;;;;;48.40;23.90;;;3.80;99.90;;;;;;4934589;29;20832;-76